Time;durP1;ratioP1;P1;durP2;ratioP2;P2;SDS_P1;SDS_P2;PMS_P1;PMS_P2;Temp;Humidity;BMP_temperature;BMP_pressure;BME280_temperature;BME280_humidity;BME280_pressure;Samples;Min_cycle;Max_cycle;Signal;HPM_P1;HPM_P2
2023/09/14 00:00:55;;;;;;;16.95;9.43;;;;;;;21.16;81.81;101522.34;5064025;28;20055;-65
2023/09/14 00:03:22;;;;;;;13.32;9.32;;;;;;;21.15;81.93;101518.72;5059337;28;20052;-64
2023/09/14 00:05:50;;;;;;;14.57;9.13;;;;;;;21.18;82.10;101514.41;5042225;28;20045;-65
2023/09/14 00:08:19;;;;;;;11.40;9.25;;;;;;;20.99;83.09;101514.34;5052068;28;20044;-65
2023/09/14 00:10:53;;;;;;;13.43;9.43;;;;;;;21.07;83.26;101508.53;5067885;28;20068;-63
2023/09/14 00:13:20;;;;;;;15.73;9.95;;;;;;;21.18;82.64;101508.78;5055678;28;20292;-64
2023/09/14 00:15:47;;;;;;;14.00;9.80;;;;;;;21.18;82.48;101506.78;5054107;28;20049;-65
2023/09/14 00:18:15;;;;;;;17.73;9.27;;;;;;;21.47;81.03;101504.59;5054682;28;20045;-64
2023/09/14 00:20:42;;;;;;;13.48;8.93;;;;;;;21.55;80.67;101504.38;5054254;28;20060;-66
2023/09/14 00:23:10;;;;;;;12.50;8.88;;;;;;;21.61;80.14;101516.13;5056001;28;20061;-64
2023/09/14 00:25:38;;;;;;;13.98;9.70;;;;;;;21.61;80.00;101513.31;5054423;28;20056;-64
2023/09/14 00:28:06;;;;;;;14.18;8.73;;;;;;;21.71;79.80;101512.72;5050333;28;20092;-63
2023/09/14 00:30:33;;;;;;;12.30;7.93;;;;;;;21.80;79.31;101508.56;5052297;28;20057;-64
2023/09/14 00:33:01;;;;;;;12.75;8.18;;;;;;;21.80;79.37;101513.34;5050102;28;20054;-65
2023/09/14 00:35:28;;;;;;;11.82;8.07;;;;;;;21.75;79.53;101520.06;5048982;28;20045;-64
2023/09/14 00:37:56;;;;;;;12.20;8.07;;;;;;;21.65;80.07;101514.22;5066037;28;20067;-64
2023/09/14 00:40:23;;;;;;;17.02;8.43;;;;;;;21.77;79.31;101512.09;5058238;28;20048;-64
2023/09/14 00:42:51;;;;;;;11.75;8.65;;;;;;;21.63;80.05;101508.97;5066488;28;20044;-64
2023/09/14 00:45:20;;;;;;;12.32;8.20;;;;;;;21.61;80.42;101508.53;5089895;28;20053;-64
2023/09/14 00:47:50;;;;;;;13.15;8.10;;;;;;;21.70;80.11;101502.69;5062028;28;20057;-63
2023/09/14 00:50:19;;;;;;;16.90;8.77;;;;;;;21.68;80.06;101505.88;5054781;28;20065;-65
2023/09/14 00:52:56;;;;;;;12.15;8.00;;;;;;;21.67;79.98;101515.47;5045490;28;20064;-63
2023/09/14 00:55:24;;;;;;;13.43;7.90;;;;;;;21.59;80.61;101504.47;5070058;28;20432;-64
2023/09/14 00:57:51;;;;;;;15.70;9.40;;;;;;;21.43;81.26;101512.16;5053072;28;20049;-64
2023/09/14 01:00:19;;;;;;;15.52;9.27;;;;;;;21.34;81.85;101506.72;5054146;28;20060;-63
2023/09/14 01:02:50;;;;;;;13.68;8.68;;;;;;;21.15;82.35;101512.31;5049539;28;20052;-64
2023/09/14 01:05:18;;;;;;;11.82;8.30;;;;;;;20.78;85.53;101513.81;5051523;28;20045;-64
2023/09/14 01:07:45;;;;;;;14.38;8.63;;;;;;;20.67;86.82;101513.53;5048388;28;20053;-64
2023/09/14 01:10:15;;;;;;;12.18;7.78;;;;;;;20.93;85.21;101512.97;5050835;28;20049;-64
2023/09/14 01:12:48;;;;;;;14.43;8.98;;;;;;;20.94;85.16;101520.16;5048540;28;20455;-65
2023/09/14 01:15:46;;;;;;;15.70;9.00;;;;;;;21.22;83.87;101518.88;5033106;28;20824;-65
2023/09/14 01:18:20;;;;;;;16.92;9.43;;;;;;;21.37;82.60;101520.03;5045071;28;20045;-64
2023/09/14 01:21:03;;;;;;;11.82;8.75;;;;;;;21.42;82.54;101516.13;5035519;28;20061;-65
2023/09/14 01:23:49;;;;;;;14.43;8.75;;;;;;;21.28;83.03;101513.81;5052213;28;20049;-64
2023/09/14 01:26:17;;;;;;;10.73;8.50;;;;;;;21.27;82.73;101513.00;5035224;28;20045;-64
2023/09/14 01:28:45;;;;;;;12.90;8.77;;;;;;;21.19;83.04;101516.81;5033666;28;20056;-64
2023/09/14 01:31:13;;;;;;;14.50;8.57;;;;;;;21.03;83.66;101509.63;5043921;28;20060;-64
2023/09/14 01:33:41;;;;;;;15.07;9.40;;;;;;;21.00;83.97;101510.34;5050427;28;20045;-64
2023/09/14 01:36:14;;;;;;;12.60;8.88;;;;;;;21.10;83.39;101506.97;5050626;28;20052;-63
2023/09/14 01:38:43;;;;;;;11.48;8.60;;;;;;;21.18;82.61;101503.19;5033093;28;20068;-63
2023/09/14 01:41:12;;;;;;;14.77;9.52;;;;;;;21.18;82.55;101503.19;5044272;28;20056;-62
2023/09/14 01:43:43;;;;;;;16.95;9.15;;;;;;;21.04;83.08;101511.25;5060887;28;20049;-64
2023/09/14 01:46:11;;;;;;;11.32;9.23;;;;;;;20.99;83.30;101508.75;5089441;28;20052;-63
2023/09/14 01:48:38;;;;;;;15.02;9.20;;;;;;;21.04;83.24;101506.44;5038816;28;20459;-64
2023/09/14 01:51:06;;;;;;;12.57;9.18;;;;;;;21.17;82.85;101513.56;5053744;28;20499;-62
2023/09/14 01:53:33;;;;;;;13.02;9.32;;;;;;;21.13;83.08;101512.66;5066518;28;20597;-62
2023/09/14 01:56:01;;;;;;;19.52;10.43;;;;;;;21.01;83.11;101512.78;5035800;28;20045;-63
2023/09/14 01:58:31;;;;;;;19.90;10.05;;;;;;;21.13;83.42;101515.47;5052047;28;20591;-62
2023/09/14 02:00:58;;;;;;;14.80;9.38;;;;;;;21.17;82.80;101507.16;5032032;28;20080;-62
2023/09/14 02:03:26;;;;;;;15.10;9.90;;;;;;;21.10;82.93;101507.81;5061439;28;20041;-62
2023/09/14 02:05:58;;;;;;;16.52;9.77;;;;;;;21.14;82.58;101499.47;5051580;28;20765;-62
2023/09/14 02:08:30;;;;;;;16.42;9.20;;;;;;;21.07;82.65;101508.53;5051030;28;20064;-63
2023/09/14 02:10:58;;;;;;;13.48;9.18;;;;;;;21.17;82.63;101513.56;5054216;28;20526;-64
2023/09/14 02:13:29;;;;;;;14.20;9.60;;;;;;;21.19;82.54;101510.41;5055487;28;20406;-64
2023/09/14 02:15:56;;;;;;;14.75;9.30;;;;;;;21.27;81.93;101509.38;5056821;28;20060;-63
2023/09/14 02:18:24;;;;;;;12.95;9.15;;;;;;;21.28;81.95;101513.81;5045447;28;20041;-64
2023/09/14 02:20:51;;;;;;;12.60;9.10;;;;;;;21.39;81.34;101511.25;5052702;28;20048;-65
2023/09/14 02:23:19;;;;;;;14.30;8.88;;;;;;;21.35;81.80;101507.56;5052133;28;20052;-63
2023/09/14 02:25:46;;;;;;;11.68;8.30;;;;;;;21.38;82.11;101501.19;5055519;28;20056;-63
2023/09/14 02:28:15;;;;;;;11.75;8.32;;;;;;;21.34;81.87;101503.94;5043099;28;20061;-64
2023/09/14 02:30:42;;;;;;;13.73;8.35;;;;;;;21.39;81.53;101505.66;5052887;28;20049;-64
2023/09/14 02:33:10;;;;;;;12.95;8.85;;;;;;;21.37;81.96;101511.63;5054824;28;20055;-64
2023/09/14 02:35:41;;;;;;;14.85;8.18;;;;;;;21.12;82.73;101513.88;5052410;28;20060;-64
2023/09/14 02:38:10;;;;;;;11.75;7.95;;;;;;;21.12;83.16;101501.84;5059067;28;20048;-64
2023/09/14 02:40:37;;;;;;;12.23;7.88;;;;;;;21.13;82.97;101500.69;5043246;28;20055;-64
2023/09/14 02:43:04;;;;;;;16.33;8.32;;;;;;;21.08;83.06;101498.13;5070112;28;20086;-65
2023/09/14 02:45:32;;;;;;;14.10;8.52;;;;;;;20.97;83.68;101503.44;5043996;28;20412;-65
2023/09/14 02:48:00;;;;;;;11.80;8.50;;;;;;;20.91;84.15;101501.31;5051807;28;20044;-64
2023/09/14 02:50:27;;;;;;;13.82;8.63;;;;;;;20.69;85.45;101504.78;5049033;28;20045;-65
2023/09/14 02:52:54;;;;;;;13.80;9.00;;;;;;;20.55;86.54;101507.22;5037380;28;20585;-64
2023/09/14 02:55:22;;;;;;;11.55;8.57;;;;;;;20.55;87.03;101496.84;5051074;28;20053;-64
2023/09/14 02:57:49;;;;;;;13.20;8.45;;;;;;;20.67;86.48;101501.53;5057458;28;20040;-63
2023/09/14 03:00:17;;;;;;;14.15;8.68;;;;;;;20.75;85.86;101495.72;5071038;28;20502;-65
2023/09/14 03:02:46;;;;;;;14.57;8.10;;;;;;;20.85;85.73;101499.97;5071150;28;20037;-64
2023/09/14 03:05:14;;;;;;;11.75;8.27;;;;;;;20.80;85.14;101494.66;5050647;28;20057;-64
2023/09/14 03:07:46;;;;;;;13.80;7.72;;;;;;;20.84;84.97;101493.56;5033711;28;20048;-63
2023/09/14 03:10:16;;;;;;;11.05;7.80;;;;;;;20.74;85.41;101501.69;5047329;28;20670;-64
2023/09/14 03:12:43;;;;;;;14.83;8.40;;;;;;;20.74;86.06;101493.28;5063718;28;20063;-64
2023/09/14 03:15:11;;;;;;;13.35;8.73;;;;;;;20.69;85.55;101493.56;5050862;28;20049;-66
2023/09/14 03:17:38;;;;;;;12.43;8.45;;;;;;;20.50;86.36;101499.09;5051319;28;20049;-64
2023/09/14 03:20:07;;;;;;;11.57;8.50;;;;;;;20.51;86.81;101500.72;5051534;28;20052;-65
2023/09/14 03:22:34;;;;;;;14.52;8.30;;;;;;;20.46;87.13;101498.19;5054669;28;20702;-64
2023/09/14 03:25:02;;;;;;;14.55;8.45;;;;;;;20.65;86.46;101489.88;5053733;28;20060;-63
2023/09/14 03:27:30;;;;;;;13.38;8.40;;;;;;;20.36;86.98;101501.53;5032937;28;20358;-63
2023/09/14 03:29:58;;;;;;;12.40;8.80;;;;;;;20.38;87.48;101505.56;5049769;28;20057;-64
2023/09/14 03:32:26;;;;;;;13.75;8.23;;;;;;;20.50;87.59;101497.13;5056875;28;20048;-64
2023/09/14 03:34:53;;;;;;;10.93;8.20;;;;;;;20.50;87.06;101487.91;5068823;28;20053;-64
2023/09/14 03:37:21;;;;;;;12.38;8.82;;;;;;;20.44;87.17;101490.16;5045777;28;20049;-65
2023/09/14 03:39:48;;;;;;;12.57;8.77;;;;;;;20.46;87.18;101492.59;5054537;28;20060;-64
2023/09/14 03:42:16;;;;;;;14.43;8.90;;;;;;;20.50;86.74;101485.09;5056359;28;20049;-64
2023/09/14 03:44:43;;;;;;;12.45;9.13;;;;;;;20.36;86.91;101485.56;5053830;28;20060;-63
2023/09/14 03:47:11;;;;;;;16.83;9.55;;;;;;;20.17;88.06;101487.44;5040385;28;20045;-63
2023/09/14 03:49:38;;;;;;;12.88;8.77;;;;;;;20.34;87.64;101487.06;5045284;28;20518;-63
2023/09/14 03:52:06;;;;;;;13.93;8.77;;;;;;;20.42;86.92;101486.06;5037228;28;20428;-65
2023/09/14 03:54:33;;;;;;;14.82;9.15;;;;;;;20.23;87.12;101484.00;5053185;28;20056;-64
2023/09/14 03:57:01;;;;;;;12.65;9.20;;;;;;;20.35;87.46;101485.88;5040236;28;20056;-64
2023/09/14 03:59:28;;;;;;;11.68;8.73;;;;;;;20.41;87.07;101481.66;5059047;28;20053;-65
2023/09/14 04:01:55;;;;;;;12.85;8.45;;;;;;;20.35;86.67;101483.91;5035782;28;20057;-64
2023/09/14 04:04:23;;;;;;;14.52;8.70;;;;;;;20.29;87.08;101478.97;5039448;28;20041;-64
2023/09/14 04:06:50;;;;;;;15.68;9.38;;;;;;;20.05;87.20;101479.88;5053908;28;20044;-64
2023/09/14 04:09:19;;;;;;;13.40;9.50;;;;;;;19.98;88.24;101477.72;5059396;28;20049;-64
2023/09/14 04:11:47;;;;;;;13.38;9.82;;;;;;;20.01;88.31;101470.59;5078419;28;20059;-64
2023/09/14 04:14:15;;;;;;;14.40;9.77;;;;;;;19.88;87.73;101474.63;5042041;28;20533;-65
2023/09/14 04:16:43;;;;;;;12.25;9.00;;;;;;;19.83;89.82;101474.88;5053165;28;20053;-65
2023/09/14 04:19:12;;;;;;;14.80;9.65;;;;;;;19.76;89.52;101474.69;5051949;28;20055;-64
2023/09/14 04:21:44;;;;;;;14.45;9.43;;;;;;;19.76;89.31;101478.31;5034956;28;20057;-65
2023/09/14 04:24:12;;;;;;;14.30;9.80;;;;;;;19.90;89.38;101481.50;5050496;28;20056;-64
2023/09/14 04:26:40;;;;;;;12.52;9.18;;;;;;;19.91;88.94;101477.50;5033625;28;20060;-65
2023/09/14 04:29:07;;;;;;;14.80;8.27;;;;;;;20.07;88.75;101472.75;5039959;28;20045;-64
2023/09/14 04:31:34;;;;;;;12.73;8.73;;;;;;;20.15;88.27;101480.16;5038751;28;20479;-64
2023/09/14 04:34:02;;;;;;;14.15;8.63;;;;;;;20.17;87.80;101484.63;5030851;28;20057;-64
2023/09/14 04:36:30;;;;;;;12.88;8.60;;;;;;;20.19;87.08;101485.09;5034367;28;20120;-63
2023/09/14 04:39:00;;;;;;;16.25;8.55;;;;;;;20.23;86.80;101478.41;5036900;28;20045;-64
2023/09/14 04:41:27;;;;;;;12.32;8.82;;;;;;;20.17;87.03;101479.03;5040254;28;20060;-64
2023/09/14 04:43:55;;;;;;;12.05;8.95;;;;;;;20.29;87.07;101481.75;5051320;28;20061;-65
2023/09/14 04:46:23;;;;;;;14.27;7.75;;;;;;;20.21;86.25;101479.97;5033099;28;20297;-65
2023/09/14 04:48:50;;;;;;;12.45;8.07;;;;;;;20.09;86.88;101487.22;5048508;28;20037;-65
2023/09/14 04:51:20;;;;;;;12.68;8.55;;;;;;;20.00;87.32;101486.56;5053140;28;20420;-64
2023/09/14 04:53:48;;;;;;;13.27;8.75;;;;;;;20.02;87.54;101486.19;5049051;28;20049;-63
2023/09/14 04:56:15;;;;;;;10.82;7.90;;;;;;;20.08;87.00;101481.97;5053304;28;20052;-63
2023/09/14 04:58:43;;;;;;;14.05;7.82;;;;;;;20.04;87.25;101487.47;5034789;28;20045;-64
2023/09/14 05:01:11;;;;;;;13.90;8.60;;;;;;;20.02;87.52;101484.22;5053588;28;20060;-64
2023/09/14 05:03:40;;;;;;;14.85;7.88;;;;;;;20.06;87.61;101493.53;5053583;28;20049;-63
2023/09/14 05:06:09;;;;;;;15.35;8.27;;;;;;;20.09;87.46;101494.78;5052777;28;20669;-63
2023/09/14 05:08:36;;;;;;;12.32;8.40;;;;;;;20.12;86.91;101491.25;5052810;28;20049;-63
2023/09/14 05:11:04;;;;;;;11.13;8.10;;;;;;;19.98;87.35;101493.66;5039565;28;20698;-63
2023/09/14 05:13:32;;;;;;;13.65;9.05;;;;;;;19.89;87.91;101498.63;5033566;28;20045;-63
2023/09/14 05:16:00;;;;;;;14.25;8.70;;;;;;;19.96;87.74;101498.84;5057833;28;20059;-63
2023/09/14 05:18:28;;;;;;;23.85;8.32;;;;;;;19.77;88.81;101499.47;5029631;28;20049;-63
2023/09/14 05:20:59;;;;;;;13.38;8.02;;;;;;;19.88;87.91;101503.41;5064734;28;20052;-64
2023/09/14 05:23:26;;;;;;;13.95;8.60;;;;;;;19.91;87.63;101510.28;5062112;28;20080;-63
2023/09/14 05:25:54;;;;;;;17.77;9.73;;;;;;;19.57;89.77;101511.69;5032070;28;20049;-63
2023/09/14 05:28:22;;;;;;;15.70;8.93;;;;;;;19.73;89.51;101509.78;5035750;28;20050;-63
2023/09/14 05:30:50;;;;;;;13.93;9.32;;;;;;;19.82;88.97;101502.03;5045217;28;20052;-63
2023/09/14 05:33:18;;;;;;;13.30;8.55;;;;;;;19.85;88.22;101509.72;5055373;28;20060;-64
2023/09/14 05:35:48;;;;;;;14.50;9.00;;;;;;;19.81;88.40;101508.78;5034837;28;20069;-64
2023/09/14 05:38:16;;;;;;;21.45;9.23;;;;;;;19.86;87.84;101502.13;5051868;28;20048;-63
2023/09/14 05:40:44;;;;;;;15.90;8.48;;;;;;;19.90;87.39;101509.47;5059849;28;20044;-62
2023/09/14 05:43:12;;;;;;;13.68;9.10;;;;;;;19.77;87.78;101504.28;5066420;28;20048;-64
2023/09/14 05:45:40;;;;;;;15.63;9.07;;;;;;;19.59;88.33;101514.94;5056131;28;20057;-64
2023/09/14 05:48:08;;;;;;;16.00;9.70;;;;;;;19.66;88.79;101512.38;5016048;28;20080;-63
2023/09/14 05:50:35;;;;;;;15.85;9.50;;;;;;;19.79;88.41;101505.53;5046437;28;20049;-64
2023/09/14 05:53:04;;;;;;;16.30;9.38;;;;;;;19.74;87.79;101507.78;5032472;28;20053;-63
2023/09/14 05:55:32;;;;;;;16.00;9.70;;;;;;;19.84;88.10;101516.47;5064673;28;20048;-63
2023/09/14 05:58:00;;;;;;;15.48;9.23;;;;;;;19.72;87.80;101524.91;5050862;28;20048;-64
2023/09/14 06:00:27;;;;;;;15.57;10.38;;;;;;;19.86;87.52;101519.72;5068710;28;20048;-64
2023/09/14 06:02:57;;;;;;;16.48;10.18;;;;;;;19.76;87.88;101522.22;5072132;28;20052;-63
2023/09/14 06:05:25;;;;;;;15.27;9.70;;;;;;;19.77;87.80;101527.44;5047419;28;20049;-65
2023/09/14 06:07:53;;;;;;;19.33;10.07;;;;;;;19.80;87.83;101523.97;5045767;28;20040;-63
2023/09/14 06:10:23;;;;;;;17.75;10.50;;;;;;;19.87;87.54;101520.53;5039603;28;20060;-64
2023/09/14 06:12:51;;;;;;;15.15;10.68;;;;;;;19.77;87.77;101526.66;5014626;28;20056;-65
2023/09/14 06:15:19;;;;;;;14.85;10.40;;;;;;;19.84;87.80;101530.44;5047489;28;20048;-64
2023/09/14 06:17:47;;;;;;;19.45;9.93;;;;;;;20.04;87.31;101526.63;5043772;28;20411;-64
2023/09/14 06:20:15;;;;;;;19.77;10.80;;;;;;;20.06;86.60;101520.69;5062126;28;20424;-63
2023/09/14 06:22:43;;;;;;;19.40;10.48;;;;;;;19.85;86.63;101526.50;5064086;28;20061;-64
2023/09/14 06:25:10;;;;;;;15.70;11.05;;;;;;;19.71;87.85;101528.88;5034426;28;20045;-62
2023/09/14 06:27:38;;;;;;;18.38;10.75;;;;;;;19.71;88.33;101531.69;5048743;28;20076;-64
2023/09/14 06:30:08;;;;;;;14.88;10.45;;;;;;;19.80;87.41;101529.56;5051239;28;20072;-63
2023/09/14 06:32:35;;;;;;;25.52;18.02;;;;;;;19.95;87.44;101534.38;5056001;28;20057;-64
2023/09/14 06:35:03;;;;;;;14.77;10.15;;;;;;;20.02;87.09;101534.56;5045875;28;20088;-63
2023/09/14 06:37:33;;;;;;;19.15;10.30;;;;;;;19.84;87.08;101521.25;5041522;28;20045;-63
2023/09/14 06:40:01;;;;;;;14.27;9.63;;;;;;;19.99;87.28;101523.28;5044521;28;20412;-64
2023/09/14 06:42:28;;;;;;;22.48;10.93;;;;;;;20.04;86.84;101529.44;5058192;28;20059;-63
2023/09/14 06:44:56;;;;;;;17.23;10.25;;;;;;;20.08;86.31;101533.13;5059384;28;20056;-65
2023/09/14 06:47:23;;;;;;;20.70;10.85;;;;;;;20.21;85.79;101530.31;5059912;28;20060;-61
2023/09/14 06:49:51;;;;;;;22.95;11.95;;;;;;;20.34;85.37;101534.66;5048556;28;20041;-61
2023/09/14 06:52:18;;;;;;;21.05;11.20;;;;;;;20.38;84.71;101538.38;5045277;28;20045;-62
2023/09/14 06:54:46;;;;;;;24.48;10.85;;;;;;;20.57;83.99;101538.47;5050935;28;20048;-62
2023/09/14 06:57:14;;;;;;;22.50;10.60;;;;;;;20.66;83.11;101544.69;5046143;28;20427;-63
2023/09/14 06:59:41;;;;;;;18.58;10.70;;;;;;;20.72;82.21;101530.06;5051421;28;20048;-63
2023/09/14 07:02:08;;;;;;;19.95;10.93;;;;;;;20.72;81.99;101551.63;5031972;28;20644;-64
2023/09/14 07:04:36;;;;;;;21.30;11.73;;;;;;;20.66;81.91;101544.69;5045798;28;20045;-64
2023/09/14 07:07:03;;;;;;;18.67;10.95;;;;;;;20.76;81.80;101541.34;5040563;28;20053;-64
2023/09/14 07:09:31;;;;;;;21.38;11.13;;;;;;;21.00;80.82;101533.59;5043119;28;20415;-63
2023/09/14 07:11:58;;;;;;;19.38;11.48;;;;;;;20.96;80.69;101529.84;5047705;28;20056;-63
2023/09/14 07:14:25;;;;;;;25.02;11.52;;;;;;;20.97;80.40;101537.06;5048040;28;20053;-64
2023/09/14 07:16:53;;;;;;;24.55;11.00;;;;;;;21.03;80.80;101541.25;5047346;28;20048;-63
2023/09/14 07:19:26;;;;;;;19.92;11.18;;;;;;;21.04;79.99;101536.47;5030753;28;20631;-63
2023/09/14 07:21:54;;;;;;;21.20;11.70;;;;;;;21.06;79.51;101537.72;5054568;28;20080;-64
2023/09/14 07:24:22;;;;;;;19.20;11.07;;;;;;;20.87;79.78;101542.44;5049440;28;20049;-63
2023/09/14 07:26:49;;;;;;;20.92;12.35;;;;;;;20.89;79.98;101537.25;5048291;28;20045;-63
2023/09/14 07:29:17;;;;;;;21.30;12.32;;;;;;;21.23;79.36;101539.31;5013005;28;20064;-64
2023/09/14 07:31:44;;;;;;;21.15;12.25;;;;;;;21.14;79.03;101538.72;5051089;28;20048;-63
2023/09/14 07:34:13;;;;;;;18.23;13.13;;;;;;;20.99;79.62;101534.75;5029641;28;20048;-62
2023/09/14 07:36:41;;;;;;;25.83;14.65;;;;;;;20.65;81.74;101540.25;5047551;28;20049;-62
2023/09/14 07:39:09;;;;;;;23.35;13.05;;;;;;;20.89;81.09;101546.47;5047817;28;20045;-63
2023/09/14 07:41:36;;;;;;;25.42;13.40;;;;;;;21.07;81.05;101538.53;5029706;28;20519;-64
2023/09/14 07:44:04;;;;;;;23.60;14.27;;;;;;;21.27;80.19;101542.22;5046656;28;20060;-63
2023/09/14 07:46:32;;;;;;;30.45;14.75;;;;;;;21.37;79.33;101548.06;5043480;28;20049;-63
2023/09/14 07:49:00;;;;;;;24.45;14.13;;;;;;;21.47;79.16;101544.69;5060481;28;20048;-63
2023/09/14 07:51:27;;;;;;;26.08;14.77;;;;;;;21.59;78.53;101535.31;5047997;28;20072;-63
2023/09/14 07:53:55;;;;;;;27.63;14.63;;;;;;;21.57;78.22;101538.47;5047559;28;20053;-63
2023/09/14 07:56:23;;;;;;;25.52;16.30;;;;;;;21.67;77.93;101534.28;5046077;28;20076;-63
2023/09/14 07:58:52;;;;;;;27.13;16.80;;;;;;;21.22;78.47;101538.50;5045475;28;20049;-63
2023/09/14 08:01:20;;;;;;;24.38;17.15;;;;;;;21.06;78.82;101539.72;5046211;28;20053;-62
2023/09/14 08:03:48;;;;;;;29.25;17.23;;;;;;;20.88;80.25;101544.06;5052038;28;20068;-63
2023/09/14 08:06:18;;;;;;;25.42;17.13;;;;;;;21.01;80.47;101543.59;5047412;28;20056;-63
2023/09/14 08:08:48;;;;;;;33.05;17.15;;;;;;;21.04;80.14;101547.69;5045215;28;20048;-62
2023/09/14 08:11:15;;;;;;;31.77;16.88;;;;;;;21.24;79.54;101552.97;5047202;28;20068;-62
2023/09/14 08:13:43;;;;;;;23.33;16.63;;;;;;;21.04;79.00;101551.28;5046352;28;20128;-65
2023/09/14 08:16:11;;;;;;;23.92;16.92;;;;;;;21.15;79.26;101555.16;5026468;28;20590;-63
2023/09/14 08:18:39;;;;;;;24.88;15.90;;;;;;;21.26;78.16;101558.22;5048967;28;20058;-64
2023/09/14 08:21:06;;;;;;;24.73;16.25;;;;;;;21.34;78.26;101562.00;5030474;28;20053;-63
2023/09/14 08:23:35;;;;;;;30.10;16.80;;;;;;;21.40;77.49;101563.31;5051162;28;20056;-64
2023/09/14 08:26:06;;;;;;;22.02;15.45;;;;;;;21.77;76.80;101561.75;5062118;28;20057;-63
2023/09/14 08:28:33;;;;;;;29.80;16.95;;;;;;;21.50;76.84;101562.75;5050032;28;20045;-64
2023/09/14 08:31:01;;;;;;;42.42;15.48;;;;;;;21.58;77.04;101562.56;5053504;28;20045;-66
2023/09/14 08:33:29;;;;;;;26.00;13.45;;;;;;;21.65;74.47;101562.72;5048330;28;20049;-66
2023/09/14 08:35:56;;;;;;;18.48;12.98;;;;;;;21.89;74.69;101558.81;5049337;28;20053;-63
2023/09/14 08:38:26;;;;;;;24.75;12.93;;;;;;;22.00;74.15;101562.66;5046503;28;20579;-64
2023/09/14 08:41:00;;;;;;;24.88;13.55;;;;;;;22.18;73.53;101559.03;5046207;28;20037;-64
2023/09/14 08:43:28;;;;;;;22.67;13.00;;;;;;;22.30;73.05;101556.03;5045691;28;20049;-63
2023/09/14 08:45:58;;;;;;;17.88;11.95;;;;;;;22.30;72.90;101552.41;5048160;28;20049;-63
2023/09/14 08:48:29;;;;;;;20.90;12.93;;;;;;;22.33;72.65;101557.31;5047915;28;20052;-62
2023/09/14 08:50:58;;;;;;;23.05;11.98;;;;;;;21.95;73.43;101554.56;5039483;28;20164;-64
2023/09/14 08:53:30;;;;;;;21.25;12.80;;;;;;;21.95;74.14;101560.16;5044822;28;20059;-64
2023/09/14 08:55:58;;;;;;;23.98;13.77;;;;;;;22.15;72.95;101567.38;5046634;28;20048;-64
2023/09/14 08:58:26;;;;;;;20.10;12.23;;;;;;;22.48;72.26;101559.19;5053924;28;20060;-63
2023/09/14 09:00:53;;;;;;;20.98;11.73;;;;;;;22.44;71.00;101555.50;5045575;28;20041;-64
2023/09/14 09:03:21;;;;;;;17.00;11.05;;;;;;;22.67;70.79;101558.34;5047902;28;20048;-62
2023/09/14 09:05:48;;;;;;;15.40;9.35;;;;;;;22.73;70.68;101568.09;5049100;28;20686;-64
2023/09/14 09:08:17;;;;;;;16.95;9.80;;;;;;;22.87;69.89;101568.31;5049984;28;20053;-62
2023/09/14 09:10:44;;;;;;;14.77;10.05;;;;;;;22.69;69.36;101556.78;5047082;28;20040;-64
2023/09/14 09:13:11;;;;;;;17.77;10.90;;;;;;;22.94;69.05;101563.66;5045666;28;20041;-66
2023/09/14 09:15:39;;;;;;;17.83;10.98;;;;;;;22.89;68.38;101558.31;5046897;28;20043;-64
2023/09/14 09:18:08;;;;;;;18.05;10.32;;;;;;;23.11;68.29;101557.50;5051233;28;20056;-64
2023/09/14 09:20:39;;;;;;;16.85;9.77;;;;;;;23.35;67.71;101556.25;5047872;28;20033;-64
2023/09/14 09:23:08;;;;;;;15.45;10.02;;;;;;;23.40;67.56;101562.38;5048684;28;20037;-63
2023/09/14 09:25:47;;;;;;;15.10;8.93;;;;;;;23.54;66.79;101558.94;5050760;28;20048;-65
2023/09/14 09:28:15;;;;;;;14.35;9.13;;;;;;;23.73;65.12;101558.81;5049382;28;20052;-64
2023/09/14 09:30:44;;;;;;;15.00;9.50;;;;;;;23.62;65.15;101557.88;5050714;28;20444;-65
2023/09/14 09:33:12;;;;;;;15.57;8.18;;;;;;;23.75;64.79;101559.22;5046217;28;20661;-67
2023/09/14 09:35:41;;;;;;;14.35;8.43;;;;;;;23.73;65.20;101550.34;5045755;28;20071;-63
2023/09/14 09:38:15;;;;;;;10.95;8.05;;;;;;;23.49;65.14;101555.66;5039335;28;20052;-69
2023/09/14 09:40:44;;;;;;;19.30;9.20;;;;;;;23.42;65.44;101550.75;5043649;28;20491;-65
2023/09/14 09:43:16;;;;;;;16.58;10.05;;;;;;;23.28;65.83;101550.53;5040255;28;20068;-64
2023/09/14 09:45:44;;;;;;;13.93;9.32;;;;;;;23.39;66.42;101551.50;5044506;28;20425;-63
2023/09/14 09:48:12;;;;;;;18.83;10.07;;;;;;;23.31;66.59;101553.41;5039478;28;20587;-63
2023/09/14 09:50:40;;;;;;;14.43;8.73;;;;;;;23.78;65.56;101554.84;5044198;28;20055;-63
2023/09/14 09:53:13;;;;;;;24.60;10.30;;;;;;;23.68;65.63;101552.69;5045231;28;20056;-63
2023/09/14 09:55:42;;;;;;;17.75;10.23;;;;;;;23.53;65.58;101551.72;5062416;28;20060;-64
2023/09/14 09:58:11;;;;;;;19.38;11.20;;;;;;;23.43;65.73;101550.34;5040759;28;20506;-63
2023/09/14 10:00:39;;;;;;;19.08;12.05;;;;;;;23.56;64.87;101541.69;5040923;28;20048;-64
2023/09/14 10:03:07;;;;;;;18.10;11.88;;;;;;;23.56;65.29;101538.88;5045502;28;20072;-63
2023/09/14 10:05:40;;;;;;;22.60;11.68;;;;;;;23.57;65.32;101544.16;5044217;28;20045;-66
2023/09/14 10:08:18;;;;;;;18.85;12.52;;;;;;;23.43;66.23;101541.91;5044082;28;20053;-62
2023/09/14 10:10:51;;;;;;;20.48;13.27;;;;;;;23.48;66.83;101538.00;5056044;28;20932;-64
2023/09/14 10:13:24;;;;;;;17.30;12.13;;;;;;;23.45;65.98;101546.38;5040238;28;20057;-64
2023/09/14 10:15:53;;;;;;;21.90;11.52;;;;;;;23.14;67.05;101544.66;5039894;28;20045;-63
2023/09/14 10:18:22;;;;;;;20.73;11.68;;;;;;;23.50;66.72;101543.22;5046169;28;20475;-64
2023/09/14 10:20:51;;;;;;;16.08;10.68;;;;;;;23.64;66.04;101537.78;5040381;28;20412;-64
2023/09/14 10:23:19;;;;;;;20.92;11.18;;;;;;;23.24;66.65;101536.41;5046453;28;20053;-63
2023/09/14 10:25:49;;;;;;;17.35;10.15;;;;;;;23.40;66.34;101531.44;5057450;28;20044;-64
2023/09/14 10:28:17;;;;;;;;;;;;;;;23.28;65.99;101534.47;5037153;28;20055;-62
2023/09/14 10:30:45;;;;;;;18.23;9.00;;;;;;;23.25;65.98;101537.22;5040219;28;19924;-63
2023/09/14 10:33:13;;;;;;;21.00;9.82;;;;;;;23.08;66.11;101527.31;5036328;28;20064;-63
2023/09/14 10:35:42;;;;;;;21.65;7.93;;;;;;;23.30;64.72;101525.66;5040235;28;20515;-63
2023/09/14 10:38:11;;;;;;;14.10;7.35;;;;;;;23.30;64.47;101522.84;5044440;28;20045;-65
2023/09/14 10:40:39;;;;;;;10.27;6.82;;;;;;;23.49;64.51;101519.09;5042587;28;20041;-65
2023/09/14 10:43:07;;;;;;;14.20;5.60;;;;;;;23.67;64.04;101514.50;5052003;28;20518;-64
2023/09/14 10:45:36;;;;;;;9.95;5.15;;;;;;;23.84;63.32;101511.91;5027539;28;20762;-62
2023/09/14 10:48:07;;;;;;;11.10;5.95;;;;;;;23.90;62.86;101509.56;5041099;28;20049;-60
2023/09/14 10:50:35;;;;;;;11.10;5.50;;;;;;;23.67;62.13;101498.44;5044336;28;20045;-63
2023/09/14 10:53:03;;;;;;;10.57;4.85;;;;;;;23.49;60.58;101494.59;5036739;28;20052;-62
2023/09/14 10:55:31;;;;;;;9.63;3.80;;;;;;;23.57;59.43;101498.31;5054127;28;20052;-62
2023/09/14 10:57:58;;;;;;;7.07;2.90;;;;;;;23.37;55.99;101494.84;5041856;28;20048;-62
2023/09/14 11:00:34;;;;;;;8.80;3.13;;;;;;;23.51;54.32;101489.41;5040434;28;20068;-61
2023/09/14 11:03:06;;;;;;;14.82;4.80;;;;;;;23.49;55.68;101493.78;5040782;28;20045;-61
2023/09/14 11:05:51;;;;;;;6.40;3.85;;;;;;;23.64;52.93;101492.78;5038654;28;20048;-64
2023/09/14 11:08:19;;;;;;;10.60;3.55;;;;;;;23.42;52.50;101492.50;5043373;28;20045;-63
2023/09/14 11:10:55;;;;;;;6.53;3.50;;;;;;;23.63;52.79;101477.09;5040540;28;20044;-64
2023/09/14 11:13:24;;;;;;;8.05;3.70;;;;;;;23.86;53.29;101489.03;5039100;28;20299;-64
2023/09/14 11:15:57;;;;;;;11.18;3.50;;;;;;;23.74;53.89;101486.47;5040544;28;20060;-63
2023/09/14 11:18:44;;;;;;;8.23;3.60;;;;;;;23.67;56.27;101483.56;5004792;28;20049;-63
2023/09/14 11:21:33;;;;;;;10.65;3.95;;;;;;;23.74;55.57;101484.47;5039895;28;20037;-63